Time;durP1;ratioP1;P1;durP2;ratioP2;P2;SDS_P1;SDS_P2;PMS_P1;PMS_P2;Temp;Humidity;BMP_temperature;BMP_pressure;BME280_temperature;BME280_humidity;BME280_pressure;Samples;Min_cycle;Max_cycle;Signal;HPM_P1;HPM_P2
2021/04/18 00:01:11;;;;;;;355.42;218.85;;;;;;;;;;4991232;28;20409;-77
2021/04/18 00:03:37;;;;;;;346.63;210.65;;;;;;;;;;4990802;28;20412;-77
2021/04/18 00:06:04;;;;;;;349.75;213.63;;;;;;;;;;4978373;28;20077;-77
2021/04/18 00:08:30;;;;;;;349.70;217.80;;;;;;;;;;4983238;28;20414;-77
2021/04/18 00:10:56;;;;;;;345.40;216.07;;;;;;;;;;4990248;28;20031;-77
2021/04/18 00:13:22;;;;;;;348.65;214.85;;;;;;;;;;4976687;28;20121;-77
2021/04/18 00:15:48;;;;;;;346.23;219.18;;;;;;;;;;4972715;28;20125;-77
2021/04/18 00:18:15;;;;;;;345.65;214.55;;;;;;;;;;4980148;28;20419;-77
2021/04/18 00:20:41;;;;;;;348.63;218.57;;;;;;;;;;4975734;28;20038;-77
2021/04/18 00:23:07;;;;;;;344.95;214.68;;;;;;;;;;4966634;28;20018;-77
2021/04/18 00:25:33;;;;;;;343.73;217.85;;;;;;;;;;4975312;28;20027;-77
2021/04/18 00:28:00;;;;;;;347.52;212.18;;;;;;;;;;4980115;28;20046;-77
2021/04/18 00:30:32;;;;;;;343.98;217.18;;;;;;;;;;4975813;28;20022;-77
2021/04/18 00:32:58;;;;;;;350.58;219.80;;;;;;;;;;4970355;28;20023;-76
2021/04/18 00:35:24;;;;;;;344.58;216.80;;;;;;;;;;4988905;28;20027;-77
2021/04/18 00:37:50;;;;;;;347.25;215.13;;;;;;;;;;4990813;28;20065;-77
2021/04/18 00:40:21;;;;;;;345.23;216.25;;;;;;;;;;4980749;28;20031;-77
2021/04/18 00:42:47;;;;;;;346.52;222.50;;;;;;;;;;4976658;28;20415;-77
2021/04/18 00:45:13;;;;;;;344.63;212.27;;;;;;;;;;4991222;28;20026;-77
2021/04/18 00:47:41;;;;;;;340.38;207.20;;;;;;;;;;4986550;28;20026;-77
2021/04/18 00:50:07;;;;;;;353.45;220.07;;;;;;;;;;4993625;28;20049;-77
2021/04/18 00:52:34;;;;;;;342.70;213.40;;;;;;;;;;4996378;28;20031;-77
2021/04/18 00:55:00;;;;;;;341.30;209.90;;;;;;;;;;4985781;28;20105;-77
2021/04/18 00:57:26;;;;;;;343.27;213.30;;;;;;;;;;5001972;28;20233;-77
2021/04/18 00:59:52;;;;;;;342.92;216.35;;;;;;;;;;4983978;28;20026;-77
2021/04/18 01:02:18;;;;;;;348.55;217.07;;;;;;;;;;4995430;28;20033;-77
2021/04/18 01:04:44;;;;;;;341.45;209.80;;;;;;;;;;5001336;28;20108;-77
2021/04/18 01:07:10;;;;;;;340.15;209.65;;;;;;;;;;5004842;28;20116;-77
2021/04/18 01:09:37;;;;;;;343.23;210.55;;;;;;;;;;4978389;28;20030;-78
2021/04/18 01:12:03;;;;;;;340.90;209.15;;;;;;;;;;5009259;28;20030;-77
2021/04/18 01:14:29;;;;;;;340.40;207.85;;;;;;;;;;4988075;28;20113;-77
2021/04/18 01:16:55;;;;;;;345.77;209.90;;;;;;;;;;5008211;28;20153;-76
2021/04/18 01:19:21;;;;;;;346.13;209.15;;;;;;;;;;4987068;28;20045;-76
2021/04/18 01:21:50;;;;;;;355.27;219.40;;;;;;;;;;4999848;28;20583;-77
2021/04/18 01:24:16;;;;;;;341.05;208.07;;;;;;;;;;4985934;28;20390;-77
2021/04/18 01:26:43;;;;;;;342.35;206.15;;;;;;;;;;4986792;28;20045;-77
2021/04/18 01:29:09;;;;;;;345.10;209.38;;;;;;;;;;4979145;28;20071;-77
2021/04/18 01:31:35;;;;;;;343.40;214.30;;;;;;;;;;4984408;28;20030;-77
2021/04/18 01:34:01;;;;;;;343.65;205.43;;;;;;;;;;4991572;28;20044;-77
2021/04/18 01:36:28;;;;;;;344.80;207.55;;;;;;;;;;5001301;28;20052;-77
2021/04/18 01:38:54;;;;;;;349.80;209.93;;;;;;;;;;5009610;28;20030;-77
2021/04/18 01:41:20;;;;;;;344.20;208.45;;;;;;;;;;4995924;28;20038;-77
2021/04/18 01:43:46;;;;;;;348.90;208.55;;;;;;;;;;4991317;28;20026;-77
2021/04/18 01:46:18;;;;;;;343.52;209.18;;;;;;;;;;4993095;28;20366;-77
2021/04/18 01:48:50;;;;;;;342.42;202.82;;;;;;;;;;4994652;28;20038;-77
2021/04/18 01:51:16;;;;;;;348.48;219.13;;;;;;;;;;5000290;28;20026;-75
2021/04/18 01:53:42;;;;;;;343.45;210.98;;;;;;;;;;5009602;28;20509;-75
2021/04/18 01:56:08;;;;;;;348.42;204.50;;;;;;;;;;4987974;28;20482;-75
2021/04/18 01:58:35;;;;;;;345.15;206.18;;;;;;;;;;4996214;28;20036;-76
2021/04/18 02:01:01;;;;;;;352.92;208.45;;;;;;;;;;5009479;28;20033;-76
2021/04/18 02:03:27;;;;;;;370.27;220.95;;;;;;;;;;4998991;28;20097;-76
2021/04/18 02:05:53;;;;;;;355.40;213.10;;;;;;;;;;4989905;28;20037;-75
2021/04/18 02:08:19;;;;;;;369.30;217.90;;;;;;;;;;4985432;28;20406;-76
2021/04/18 02:10:45;;;;;;;373.00;220.98;;;;;;;;;;4992011;28;20025;-76
2021/04/18 02:13:11;;;;;;;387.75;212.77;;;;;;;;;;5000730;28;20026;-76
2021/04/18 02:15:37;;;;;;;365.08;212.75;;;;;;;;;;4983502;28;20121;-76
2021/04/18 02:18:04;;;;;;;362.05;214.05;;;;;;;;;;4984485;28;20095;-76
2021/04/18 02:20:30;;;;;;;372.95;218.77;;;;;;;;;;4992389;28;20056;-76
2021/04/18 02:22:56;;;;;;;369.77;219.35;;;;;;;;;;4974838;28;20034;-76
2021/04/18 02:25:22;;;;;;;363.00;215.23;;;;;;;;;;4974885;28;20034;-76
2021/04/18 02:27:48;;;;;;;357.27;212.30;;;;;;;;;;4988375;28;20545;-76
2021/04/18 02:30:14;;;;;;;373.42;208.32;;;;;;;;;;4975729;28;20069;-76
2021/04/18 02:32:41;;;;;;;358.17;205.35;;;;;;;;;;5002107;28;20632;-76
2021/04/18 02:35:08;;;;;;;355.95;210.32;;;;;;;;;;5000670;28;20054;-76
2021/04/18 02:37:34;;;;;;;365.40;213.60;;;;;;;;;;4987785;28;20030;-75
2021/04/18 02:40:00;;;;;;;353.67;209.65;;;;;;;;;;4998794;28;20110;-75
2021/04/18 02:42:26;;;;;;;358.95;204.48;;;;;;;;;;4983189;28;20069;-76
2021/04/18 02:44:52;;;;;;;363.45;208.93;;;;;;;;;;5005229;28;20027;-76
2021/04/18 02:47:18;;;;;;;358.85;206.25;;;;;;;;;;5003914;28;20038;-76
2021/04/18 02:49:44;;;;;;;372.73;216.02;;;;;;;;;;4983183;28;20026;-77
2021/04/18 02:52:19;;;;;;;366.00;225.65;;;;;;;;;;4998709;28;20383;-76
2021/04/18 02:54:45;;;;;;;366.60;213.25;;;;;;;;;;4996031;28;20033;-76
2021/04/18 02:57:12;;;;;;;366.02;212.32;;;;;;;;;;4987175;28;20045;-77
2021/04/18 02:59:42;;;;;;;378.23;216.57;;;;;;;;;;5005293;28;20501;-76
2021/04/18 03:02:09;;;;;;;367.90;213.50;;;;;;;;;;4986122;28;20126;-76
2021/04/18 03:04:35;;;;;;;366.55;224.88;;;;;;;;;;4995400;28;20022;-77
2021/04/18 03:07:01;;;;;;;362.15;220.43;;;;;;;;;;4995698;28;20033;-76
2021/04/18 03:09:27;;;;;;;397.88;224.88;;;;;;;;;;4995708;28;20666;-76
2021/04/18 03:11:53;;;;;;;380.38;224.07;;;;;;;;;;5001410;28;20033;-76
2021/04/18 03:14:19;;;;;;;373.73;213.15;;;;;;;;;;4989339;28;20476;-76
2021/04/18 03:16:45;;;;;;;373.67;218.43;;;;;;;;;;5011504;28;20053;-76
2021/04/18 03:19:11;;;;;;;374.05;214.10;;;;;;;;;;4980851;28;20077;-76
2021/04/18 03:21:37;;;;;;;375.95;220.80;;;;;;;;;;5011148;28;20058;-76
2021/04/18 03:24:03;;;;;;;374.95;217.23;;;;;;;;;;4985438;28;20129;-76
2021/04/18 03:26:29;;;;;;;369.13;218.73;;;;;;;;;;4988880;28;20030;-76
2021/04/18 03:28:55;;;;;;;361.20;221.80;;;;;;;;;;4989082;28;20113;-76
2021/04/18 03:31:21;;;;;;;355.63;213.43;;;;;;;;;;4986909;28;20034;-76
2021/04/18 03:33:47;;;;;;;360.33;211.18;;;;;;;;;;4983723;28;20033;-76
2021/04/18 03:36:13;;;;;;;351.60;217.02;;;;;;;;;;4990392;28;20073;-76
2021/04/18 03:38:39;;;;;;;370.65;220.48;;;;;;;;;;4990209;28;20038;-76
2021/04/18 03:41:05;;;;;;;357.38;214.77;;;;;;;;;;4986732;28;20348;-76
2021/04/18 03:43:31;;;;;;;364.83;217.27;;;;;;;;;;5007642;28;20046;-76
2021/04/18 03:45:57;;;;;;;362.38;218.00;;;;;;;;;;4979443;28;20030;-76
2021/04/18 03:48:24;;;;;;;348.98;209.57;;;;;;;;;;5006699;28;20461;-77
2021/04/18 03:50:51;;;;;;;349.15;208.93;;;;;;;;;;5000184;28;20026;-77
2021/04/18 03:53:17;;;;;;;357.25;209.20;;;;;;;;;;4995506;28;20045;-77
2021/04/18 03:55:43;;;;;;;352.27;214.43;;;;;;;;;;4985287;28;20407;-78
2021/04/18 03:58:09;;;;;;;350.40;212.02;;;;;;;;;;4994442;28;20026;-77
2021/04/18 04:00:35;;;;;;;354.58;216.27;;;;;;;;;;4990955;28;20397;-77
2021/04/18 04:03:01;;;;;;;351.95;214.80;;;;;;;;;;4982190;28;20117;-77
2021/04/18 04:05:27;;;;;;;356.25;223.70;;;;;;;;;;5006848;28;20034;-77
2021/04/18 04:07:53;;;;;;;361.52;221.23;;;;;;;;;;5004699;28;20417;-77
2021/04/18 04:10:19;;;;;;;359.23;212.88;;;;;;;;;;4988340;28;20026;-78
2021/04/18 04:12:45;;;;;;;368.60;220.73;;;;;;;;;;5003667;28;20018;-78
2021/04/18 04:15:12;;;;;;;356.35;210.27;;;;;;;;;;4984299;28;20026;-78
2021/04/18 04:17:38;;;;;;;353.98;215.07;;;;;;;;;;5004324;28;20040;-78
2021/04/18 04:20:04;;;;;;;359.67;212.45;;;;;;;;;;4991489;28;20018;-78
2021/04/18 04:22:30;;;;;;;364.08;215.60;;;;;;;;;;4990531;28;20478;-78
2021/04/18 04:24:56;;;;;;;358.38;216.68;;;;;;;;;;4993186;28;20030;-78
2021/04/18 04:27:22;;;;;;;368.38;220.63;;;;;;;;;;5002350;28;20077;-77
2021/04/18 04:29:49;;;;;;;368.48;218.52;;;;;;;;;;4995869;28;20674;-78
2021/04/18 04:32:15;;;;;;;366.02;217.68;;;;;;;;;;4987596;28;20023;-77
2021/04/18 04:34:41;;;;;;;366.17;219.10;;;;;;;;;;5008429;28;20080;-77
2021/04/18 04:37:10;;;;;;;366.45;221.77;;;;;;;;;;5000258;28;20651;-78
2021/04/18 04:39:36;;;;;;;356.33;218.82;;;;;;;;;;4985766;28;20038;-78
2021/04/18 04:42:02;;;;;;;354.58;218.05;;;;;;;;;;4996910;28;20061;-77
2021/04/18 04:44:29;;;;;;;350.02;213.23;;;;;;;;;;4994867;28;20042;-77
2021/04/18 04:46:55;;;;;;;361.65;220.88;;;;;;;;;;4991752;28;20117;-77
2021/04/18 04:49:22;;;;;;;358.67;216.57;;;;;;;;;;5003241;28;20111;-77
2021/04/18 04:51:48;;;;;;;357.10;223.05;;;;;;;;;;5002589;28;20026;-77
2021/04/18 04:54:14;;;;;;;355.02;211.90;;;;;;;;;;4993325;28;20398;-77
2021/04/18 04:56:40;;;;;;;348.77;214.23;;;;;;;;;;4999724;28;20034;-77
2021/04/18 04:59:06;;;;;;;350.00;206.32;;;;;;;;;;4991086;28;20034;-78
2021/04/18 05:01:32;;;;;;;356.95;217.13;;;;;;;;;;5001119;28;20034;-77
2021/04/18 05:03:58;;;;;;;374.92;214.93;;;;;;;;;;5003646;28;20046;-77
2021/04/18 05:06:24;;;;;;;352.50;208.35;;;;;;;;;;4992636;28;20038;-78
2021/04/18 05:08:50;;;;;;;370.63;211.05;;;;;;;;;;4989884;28;20057;-78
2021/04/18 05:11:16;;;;;;;355.60;209.55;;;;;;;;;;4986736;28;20022;-78
2021/04/18 05:13:42;;;;;;;362.38;215.43;;;;;;;;;;5008614;28;20130;-77
2021/04/18 05:16:08;;;;;;;371.98;218.38;;;;;;;;;;4990684;28;20116;-78
2021/04/18 05:18:37;;;;;;;358.25;223.23;;;;;;;;;;4986623;28;20026;-78
2021/04/18 05:21:03;;;;;;;347.85;211.90;;;;;;;;;;5000291;28;20073;-77
2021/04/18 05:23:29;;;;;;;348.75;206.15;;;;;;;;;;4994857;28;20045;-77
2021/04/18 05:25:55;;;;;;;345.20;206.07;;;;;;;;;;5003325;28;20034;-78
2021/04/18 05:28:21;;;;;;;351.30;216.60;;;;;;;;;;4993970;28;20029;-78
2021/04/18 05:30:47;;;;;;;352.77;217.77;;;;;;;;;;5007119;28;20026;-78
2021/04/18 05:33:13;;;;;;;350.23;216.75;;;;;;;;;;5003517;28;20045;-78
2021/04/18 05:35:39;;;;;;;369.17;208.02;;;;;;;;;;4987790;28;20041;-78
2021/04/18 05:38:05;;;;;;;346.98;208.85;;;;;;;;;;4998506;28;20034;-78
2021/04/18 05:40:31;;;;;;;360.98;218.70;;;;;;;;;;4984213;28;20088;-75
2021/04/18 05:42:57;;;;;;;348.23;212.80;;;;;;;;;;4996043;28;20054;-78
2021/04/18 05:45:23;;;;;;;349.95;208.90;;;;;;;;;;5001559;28;20026;-76
2021/04/18 05:47:49;;;;;;;363.88;213.95;;;;;;;;;;4999432;28;20470;-78
2021/04/18 05:50:15;;;;;;;349.60;214.68;;;;;;;;;;4993597;28;20072;-78
2021/04/18 05:52:43;;;;;;;353.90;220.02;;;;;;;;;;4995193;28;20053;-78
2021/04/18 05:55:10;;;;;;;350.30;214.73;;;;;;;;;;4992058;28;20018;-78
2021/04/18 05:57:36;;;;;;;361.02;219.55;;;;;;;;;;4996434;28;20121;-77
2021/04/18 06:00:04;;;;;;;358.38;211.52;;;;;;;;;;4988891;28;20064;-77
2021/04/18 06:02:30;;;;;;;353.35;216.60;;;;;;;;;;4994683;28;20034;-76
2021/04/18 06:04:56;;;;;;;352.27;216.50;;;;;;;;;;4998572;28;20037;-77
2021/04/18 06:07:22;;;;;;;366.67;222.65;;;;;;;;;;4987729;28;20205;-77
2021/04/18 06:09:48;;;;;;;361.42;226.80;;;;;;;;;;4988315;28;20501;-77
2021/04/18 06:12:14;;;;;;;356.80;223.48;;;;;;;;;;4996401;28;20038;-78
2021/04/18 06:14:43;;;;;;;358.42;228.68;;;;;;;;;;4993572;28;20057;-77
2021/04/18 06:17:09;;;;;;;363.33;224.80;;;;;;;;;;5001283;28;20164;-78
2021/04/18 06:19:35;;;;;;;370.65;218.27;;;;;;;;;;4992339;28;20128;-77
2021/04/18 06:22:01;;;;;;;361.05;228.68;;;;;;;;;;4990697;28;20034;-77
2021/04/18 06:24:27;;;;;;;356.52;217.50;;;;;;;;;;4975294;28;20022;-77
2021/04/18 06:26:53;;;;;;;362.98;228.00;;;;;;;;;;4996561;28;20021;-77
2021/04/18 06:29:19;;;;;;;360.33;223.88;;;;;;;;;;4994693;28;20026;-77
2021/04/18 06:31:45;;;;;;;360.67;221.40;;;;;;;;;;5003441;28;20085;-77
2021/04/18 06:34:11;;;;;;;360.40;217.27;;;;;;;;;;4991008;28;20019;-77
2021/04/18 06:36:37;;;;;;;371.00;238.75;;;;;;;;;;4997794;28;20505;-78
2021/04/18 06:39:03;;;;;;;372.15;233.13;;;;;;;;;;5011311;28;20038;-78
2021/04/18 06:41:30;;;;;;;368.50;221.07;;;;;;;;;;5004690;28;20054;-78
2021/04/18 06:43:56;;;;;;;370.80;235.93;;;;;;;;;;4982586;28;20034;-78
2021/04/18 06:46:22;;;;;;;364.23;229.25;;;;;;;;;;5014171;28;20478;-76
2021/04/18 06:48:49;;;;;;;366.65;230.32;;;;;;;;;;4978759;28;20034;-76
2021/04/18 06:51:16;;;;;;;368.52;228.85;;;;;;;;;;4996631;28;20471;-77
2021/04/18 06:53:42;;;;;;;371.10;236.80;;;;;;;;;;4999417;28;20018;-77
2021/04/18 06:56:08;;;;;;;368.73;230.90;;;;;;;;;;4998579;28;20042;-77
2021/04/18 06:58:34;;;;;;;367.15;230.93;;;;;;;;;;5011797;28;20031;-77
2021/04/18 07:01:01;;;;;;;367.52;229.98;;;;;;;;;;4978438;28;20074;-77
2021/04/18 07:03:27;;;;;;;377.25;238.10;;;;;;;;;;4986467;28;20140;-77
2021/04/18 07:05:57;;;;;;;374.75;239.50;;;;;;;;;;4996386;28;20034;-77
2021/04/18 07:08:23;;;;;;;378.55;235.82;;;;;;;;;;4998338;28;20029;-77
2021/04/18 07:10:49;;;;;;;383.20;243.68;;;;;;;;;;5005146;28;20161;-77
2021/04/18 07:13:16;;;;;;;374.90;239.57;;;;;;;;;;4995726;28;20101;-77
2021/04/18 07:15:44;;;;;;;379.77;242.95;;;;;;;;;;5000175;28;20037;-77
2021/04/18 07:18:12;;;;;;;374.67;246.02;;;;;;;;;;5015332;28;20029;-76
2021/04/18 07:20:52;;;;;;;381.75;248.55;;;;;;;;;;4995110;28;20038;-76
2021/04/18 07:23:29;;;;;;;379.67;247.52;;;;;;;;;;5005543;28;20385;-76
2021/04/18 07:25:59;;;;;;;388.10;253.80;;;;;;;;;;5002901;28;20071;-77
2021/04/18 07:28:28;;;;;;;387.45;257.20;;;;;;;;;;5020173;28;20048;-76
2021/04/18 07:30:56;;;;;;;385.58;261.08;;;;;;;;;;5012772;28;20548;-77
2021/04/18 07:33:28;;;;;;;390.80;268.33;;;;;;;;;;4995772;28;20034;-77
2021/04/18 07:35:54;;;;;;;392.00;266.88;;;;;;;;;;5014912;28;20029;-77
2021/04/18 07:38:21;;;;;;;393.77;272.23;;;;;;;;;;4997751;28;20036;-77
2021/04/18 07:40:57;;;;;;;394.83;274.35;;;;;;;;;;5014770;28;20022;-76
2021/04/18 07:43:23;;;;;;;390.35;273.35;;;;;;;;;;5014335;28;20045;-77
2021/04/18 07:45:51;;;;;;;400.10;282.13;;;;;;;;;;4996447;28;20045;-77
2021/04/18 07:48:17;;;;;;;402.77;280.83;;;;;;;;;;4994439;28;20030;-76
2021/04/18 07:50:44;;;;;;;403.17;287.48;;;;;;;;;;5005833;28;21172;-79
2021/04/18 07:53:11;;;;;;;396.92;282.33;;;;;;;;;;4973643;28;20031;-76
2021/04/18 07:55:37;;;;;;;405.33;295.27;;;;;;;;;;4973102;28;20035;-76
2021/04/18 07:58:04;;;;;;;404.25;297.02;;;;;;;;;;4970098;28;20038;-77
2021/04/18 08:00:30;;;;;;;404.25;303.77;;;;;;;;;;4973291;28;20066;-76
2021/04/18 08:02:56;;;;;;;406.25;306.38;;;;;;;;;;4951528;28;20371;-76
2021/04/18 08:05:25;;;;;;;402.63;306.23;;;;;;;;;;4947555;29;20423;-76
2021/04/18 08:08:14;;;;;;;400.20;305.02;;;;;;;;;;4954619;29;20031;-77
2021/04/18 08:10:42;;;;;;;400.05;301.60;;;;;;;;;;4938713;29;20569;-77
2021/04/18 08:13:09;;;;;;;400.75;302.90;;;;;;;;;;4949442;28;20023;-76
2021/04/18 08:15:37;;;;;;;397.45;299.38;;;;;;;;;;4958923;28;20043;-77
2021/04/18 08:18:10;;;;;;;392.02;293.38;;;;;;;;;;4938216;29;20035;-76
2021/04/18 08:20:42;;;;;;;396.33;299.98;;;;;;;;;;4945897;29;20035;-76
2021/04/18 08:23:09;;;;;;;401.50;301.48;;;;;;;;;;4941162;28;20027;-77
2021/04/18 08:25:36;;;;;;;396.20;305.48;;;;;;;;;;4994930;28;20467;-76
2021/04/18 08:28:04;;;;;;;403.83;317.88;;;;;;;;;;5003192;28;20018;-76
2021/04/18 08:30:31;;;;;;;408.85;320.83;;;;;;;;;;4997112;28;20025;-78
2021/04/18 08:32:57;;;;;;;404.75;318.48;;;;;;;;;;4997184;28;20029;-77
2021/04/18 08:35:25;;;;;;;401.15;318.45;;;;;;;;;;4992713;28;20388;-76
2021/04/18 08:38:24;;;;;;;404.98;315.02;;;;;;;;;;4996145;28;20026;-76
2021/04/18 08:41:03;;;;;;;401.90;313.63;;;;;;;;;;4956322;28;20475;-77
2021/04/18 08:43:32;;;;;;;397.27;316.02;;;;;;;;;;4973885;28;20051;-77
2021/04/18 08:45:58;;;;;;;400.63;308.45;;;;;;;;;;4995834;28;20036;-77
2021/04/18 08:48:24;;;;;;;399.27;308.67;;;;;;;;;;5013968;28;20547;-76
2021/04/18 08:51:03;;;;;;;397.58;310.88;;;;;;;;;;4996728;28;20021;-77
2021/04/18 08:53:29;;;;;;;401.00;304.80;;;;;;;;;;4996566;28;20030;-77
2021/04/18 08:56:02;;;;;;;400.73;307.13;;;;;;;;;;5014218;28;20104;-77
2021/04/18 08:58:31;;;;;;;418.35;318.17;;;;;;;;;;5011842;28;20026;-76
2021/04/18 09:01:11;;;;;;;404.13;318.20;;;;;;;;;;4990544;28;20022;-76
2021/04/18 09:03:56;;;;;;;395.40;324.77;;;;;;;;;;5002398;28;20030;-77
2021/04/18 09:06:31;;;;;;;401.75;344.00;;;;;;;;;;4977034;28;20548;-76
2021/04/18 09:08:57;;;;;;;401.52;352.38;;;;;;;;;;4977261;28;20455;-76
2021/04/18 09:11:23;;;;;;;402.98;351.20;;;;;;;;;;4976952;28;20057;-75
2021/04/18 09:13:55;;;;;;;406.25;356.02;;;;;;;;;;4976747;28;20418;-77
2021/04/18 09:16:32;;;;;;;412.30;362.80;;;;;;;;;;4974955;28;20033;-75
2021/04/18 09:19:17;;;;;;;414.83;369.70;;;;;;;;;;4975248;28;20057;-76
2021/04/18 09:21:51;;;;;;;414.45;369.73;;;;;;;;;;4974339;28;20490;-76
2021/04/18 09:24:18;;;;;;;424.73;379.58;;;;;;;;;;4973640;28;20034;-76
2021/04/18 09:26:54;;;;;;;438.05;392.20;;;;;;;;;;4973688;28;20437;-77
2021/04/18 09:29:22;;;;;;;434.15;388.33;;;;;;;;;;4995531;28;20018;-77
2021/04/18 09:31:52;;;;;;;443.25;397.08;;;;;;;;;;5013319;28;20022;-77
2021/04/18 09:34:19;;;;;;;448.85;402.27;;;;;;;;;;5011725;28;20030;-77
2021/04/18 09:36:45;;;;;;;437.77;393.17;;;;;;;;;;5011046;28;20026;-76
2021/04/18 09:39:11;;;;;;;448.83;404.30;;;;;;;;;;4989326;28;20030;-79
2021/04/18 09:41:37;;;;;;;441.52;397.27;;;;;;;;;;4995258;28;20038;-77
2021/04/18 09:44:06;;;;;;;447.13;402.75;;;;;;;;;;4992425;28;20026;-77
2021/04/18 09:46:42;;;;;;;443.90;399.75;;;;;;;;;;5013009;28;20036;-76
2021/04/18 09:49:08;;;;;;;450.13;405.13;;;;;;;;;;4980367;28;20034;-76
2021/04/18 09:51:53;;;;;;;466.50;421.17;;;;;;;;;;4991695;28;20018;-76
2021/04/18 09:54:30;;;;;;;469.08;424.02;;;;;;;;;;4984068;28;20447;-74
2021/04/18 09:57:15;;;;;;;456.45;412.00;;;;;;;;;;5009554;28;20022;-76
2021/04/18 09:59:42;;;;;;;438.23;394.35;;;;;;;;;;4995825;28;20037;-76
2021/04/18 10:02:09;;;;;;;442.27;397.95;;;;;;;;;;4995144;28;20172;-80
2021/04/18 10:04:41;;;;;;;449.33;404.98;;;;;;;;;;4993973;28;20029;-77
2021/04/18 10:07:08;;;;;;;474.17;428.83;;;;;;;;;;4994494;28;20037;-77
2021/04/18 10:09:53;;;;;;;483.45;438.20;;;;;;;;;;4997226;28;20026;-77
2021/04/18 10:12:19;;;;;;;484.30;438.77;;;;;;;;;;5012744;28;20496;-78
2021/04/18 10:14:45;;;;;;;493.17;447.45;;;;;;;;;;4995041;28;20026;-78
2021/04/18 10:17:11;;;;;;;494.15;448.38;;;;;;;;;;4993865;28;20058;-78
2021/04/18 10:19:52;;;;;;;501.77;456.45;;;;;;;;;;4991737;28;20087;-78
2021/04/18 10:22:18;;;;;;;507.70;462.10;;;;;;;;;;5001476;28;20451;-78
2021/04/18 10:24:52;;;;;;;524.70;477.95;;;;;;;;;;4993318;28;20037;-76
2021/04/18 10:27:21;;;;;;;524.40;478.42;;;;;;;;;;4999327;28;20351;-78
2021/04/18 10:29:47;;;;;;;524.22;478.10;;;;;;;;;;4993254;28;20030;-78
2021/04/18 10:32:13;;;;;;;523.35;477.08;;;;;;;;;;4995197;28;20030;-77
2021/04/18 10:34:41;;;;;;;516.85;470.92;;;;;;;;;;4993654;28;20112;-78
2021/04/18 10:37:07;;;;;;;513.20;467.88;;;;;;;;;;5007783;28;20545;-80
2021/04/18 10:39:34;;;;;;;511.27;465.50;;;;;;;;;;4975937;28;20034;-77
2021/04/18 10:42:00;;;;;;;498.38;453.23;;;;;;;;;;4993391;28;20046;-78
2021/04/18 10:44:27;;;;;;;495.00;449.58;;;;;;;;;;4976089;28;20422;-78
2021/04/18 10:46:55;;;;;;;484.20;439.60;;;;;;;;;;4993038;28;20029;-77
2021/04/18 10:49:21;;;;;;;487.52;442.10;;;;;;;;;;4998785;28;20068;-77
2021/04/18 10:51:48;;;;;;;490.13;444.75;;;;;;;;;;4987565;28;20018;-78
2021/04/18 10:54:15;;;;;;;462.95;418.23;;;;;;;;;;4986033;28;20033;-77
2021/04/18 10:56:42;;;;;;;459.88;414.95;;;;;;;;;;5012945;28;20355;-77
2021/04/18 10:59:08;;;;;;;470.38;424.83;;;;;;;;;;4992976;28;20084;-81
2021/04/18 11:01:34;;;;;;;482.17;436.17;;;;;;;;;;4977187;28;20121;-78
2021/04/18 11:04:01;;;;;;;560.25;505.85;;;;;;;;;;4993880;28;20165;-77
2021/04/18 11:06:27;;;;;;;551.55;500.75;;;;;;;;;;4994917;28;20033;-78
2021/04/18 11:08:53;;;;;;;707.85;643.03;;;;;;;;;;5001706;28;20022;-79
2021/04/18 11:11:21;;;;;;;565.95;514.40;;;;;;;;;;4976498;28;20027;-77
2021/04/18 11:13:47;;;;;;;552.35;503.67;;;;;;;;;;4992785;28;20018;-77
2021/04/18 11:16:13;;;;;;;553.90;505.25;;;;;;;;;;5021170;28;20021;-78
2021/04/18 11:18:39;;;;;;;558.92;510.92;;;;;;;;;;5014328;28;20029;-79
2021/04/18 11:21:05;;;;;;;563.90;515.85;;;;;;;;;;5005746;28;20057;-77
2021/04/18 11:23:31;;;;;;;568.42;519.67;;;;;;;;;;4987159;28;20129;-77
2021/04/18 11:25:57;;;;;;;559.42;511.23;;;;;;;;;;5011903;28;20101;-77
2021/04/18 11:28:23;;;;;;;556.63;509.48;;;;;;;;;;4982494;28;20037;-78
2021/04/18 11:30:49;;;;;;;543.55;497.35;;;;;;;;;;4987973;28;20397;-76
2021/04/18 11:33:15;;;;;;;525.65;479.20;;;;;;;;;;4992306;28;20053;-77
2021/04/18 11:35:41;;;;;;;512.22;466.67;;;;;;;;;;4997441;28;20056;-76
2021/04/18 11:38:07;;;;;;;500.77;454.63;;;;;;;;;;4997101;28;20022;-78
2021/04/18 11:40:34;;;;;;;485.13;439.23;;;;;;;;;;5014977;28;20560;-77
2021/04/18 11:43:01;;;;;;;470.15;424.48;;;;;;;;;;5015136;28;20137;-81
2021/04/18 11:45:27;;;;;;;471.65;425.70;;;;;;;;;;5015670;28;20449;-78
2021/04/18 11:47:53;;;;;;;460.77;415.25;;;;;;;;;;4995704;28;20469;-78
2021/04/18 11:50:20;;;;;;;467.65;421.42;;;;;;;;;;4990288;28;20045;-78
2021/04/18 11:52:46;;;;;;;477.02;430.33;;;;;;;;;;4995757;28;20505;-78
2021/04/18 11:55:14;;;;;;;486.77;440.00;;;;;;;;;;5010273;28;20041;-77
2021/04/18 11:57:40;;;;;;;490.90;443.38;;;;;;;;;;4981880;28;20046;-77
2021/04/18 12:00:08;;;;;;;479.00;432.55;;;;;;;;;;5004574;28;20120;-77
2021/04/18 12:02:34;;;;;;;474.80;427.65;;;;;;;;;;5002809;28;20037;-77
2021/04/18 12:05:00;;;;;;;502.33;450.48;;;;;;;;;;5000557;28;20045;-77
2021/04/18 12:07:26;;;;;;;478.70;429.25;;;;;;;;;;4989228;28;20049;-77
2021/04/18 12:09:53;;;;;;;520.20;464.90;;;;;;;;;;5003046;28;20014;-77
2021/04/18 12:12:19;;;;;;;615.05;551.05;;;;;;;;;;4989305;28;20467;-78
2021/04/18 12:14:45;;;;;;;507.02;454.85;;;;;;;;;;4985738;28;20029;-77
2021/04/18 12:17:11;;;;;;;498.67;448.02;;;;;;;;;;4999600;28;20077;-78
2021/04/18 12:19:37;;;;;;;492.42;443.40;;;;;;;;;;5000417;28;20025;-77
2021/04/18 12:22:03;;;;;;;491.85;443.75;;;;;;;;;;4984201;28;20520;-78
2021/04/18 12:24:29;;;;;;;492.30;444.90;;;;;;;;;;4984666;28;20030;-78
2021/04/18 12:26:55;;;;;;;494.40;446.40;;;;;;;;;;5001863;28;20470;-77
2021/04/18 12:29:21;;;;;;;490.70;442.38;;;;;;;;;;5003372;28;20099;-77
2021/04/18 12:31:47;;;;;;;485.40;437.55;;;;;;;;;;5001666;28;20037;-78
2021/04/18 12:34:13;;;;;;;480.55;432.75;;;;;;;;;;4998751;28;20049;-78
2021/04/18 12:36:39;;;;;;;474.35;426.33;;;;;;;;;;5005160;28;20034;-78
2021/04/18 12:39:06;;;;;;;471.85;423.52;;;;;;;;;;4982147;28;20041;-77
2021/04/18 12:41:32;;;;;;;471.13;421.77;;;;;;;;;;4982803;28;20626;-77
2021/04/18 12:43:58;;;;;;;470.33;420.25;;;;;;;;;;5012382;28;20025;-77
2021/04/18 12:46:24;;;;;;;462.35;411.50;;;;;;;;;;4995865;28;20030;-79
2021/04/18 12:48:51;;;;;;;453.23;402.23;;;;;;;;;;5004176;28;20033;-80
2021/04/18 12:51:17;;;;;;;456.85;402.40;;;;;;;;;;5008603;28;20493;-77
2021/04/18 12:53:43;;;;;;;459.58;394.20;;;;;;;;;;4996596;28;20057;-79
2021/04/18 12:56:09;;;;;;;459.08;389.77;;;;;;;;;;4996354;28;20401;-78
2021/04/18 12:58:35;;;;;;;480.13;400.25;;;;;;;;;;5014351;28;20088;-77
2021/04/18 13:01:01;;;;;;;472.90;393.25;;;;;;;;;;4984752;28;20030;-78
2021/04/18 13:03:27;;;;;;;531.88;439.35;;;;;;;;;;5001379;28;20053;-78
2021/04/18 13:05:53;;;;;;;470.40;391.48;;;;;;;;;;5000506;28;20100;-81
2021/04/18 13:08:19;;;;;;;614.45;496.95;;;;;;;;;;4984521;28;20017;-78
2021/04/18 13:10:45;;;;;;;453.98;377.08;;;;;;;;;;4996043;28;20026;-78
2021/04/18 13:13:12;;;;;;;442.80;358.50;;;;;;;;;;4997128;28;20080;-79
2021/04/18 13:15:39;;;;;;;441.95;364.48;;;;;;;;;;5009143;28;20026;-77
2021/04/18 13:18:05;;;;;;;457.08;371.90;;;;;;;;;;4994126;28;20018;-78
2021/04/18 13:20:31;;;;;;;459.05;375.73;;;;;;;;;;5007566;28;20491;-77
2021/04/18 13:22:57;;;;;;;472.10;385.00;;;;;;;;;;5005565;28;20071;-78
2021/04/18 13:25:23;;;;;;;464.17;394.08;;;;;;;;;;4988434;28;20109;-77
2021/04/18 13:27:49;;;;;;;496.67;437.40;;;;;;;;;;5002256;28;20037;-77
2021/04/18 13:30:15;;;;;;;590.45;526.58;;;;;;;;;;5002160;28;20386;-77
2021/04/18 13:32:41;;;;;;;609.80;546.67;;;;;;;;;;4994855;28;20084;-78
2021/04/18 13:35:11;;;;;;;657.70;591.17;;;;;;;;;;4994918;28;20029;-79
2021/04/18 13:37:37;;;;;;;611.17;549.37;;;;;;;;;;5012965;28;20021;-79
2021/04/18 13:40:03;;;;;;;730.53;658.95;;;;;;;;;;4983129;28;20056;-78
2021/04/18 13:42:29;;;;;;;611.85;550.05;;;;;;;;;;5012641;28;20489;-77
2021/04/18 13:44:55;;;;;;;695.47;628.42;;;;;;;;;;4995817;28;20121;-79
2021/04/18 13:47:21;;;;;;;763.03;690.25;;;;;;;;;;4993461;28;20092;-79
2021/04/18 13:49:47;;;;;;;744.22;673.45;;;;;;;;;;4996055;28;20029;-78
2021/04/18 13:52:13;;;;;;;748.22;677.28;;;;;;;;;;5012603;28;20021;-78